sensor_id;sensor_type;location;lat;lon;timestamp;P1;durP1;ratioP1;P2;durP2;ratioP2
59938;SDS011;45801;51.810;19.444;2024-03-29T00:01:35;5.80;;;2.10;;
59938;SDS011;45801;51.810;19.444;2024-03-29T00:04:02;6.40;;;2.30;;
59938;SDS011;45801;51.810;19.444;2024-03-29T00:06:28;6.60;;;2.30;;
59938;SDS011;45801;51.810;19.444;2024-03-29T00:08:54;6.30;;;2.00;;
59938;SDS011;45801;51.810;19.444;2024-03-29T00:11:21;6.10;;;2.20;;
59938;SDS011;45801;51.810;19.444;2024-03-29T00:13:47;5.70;;;2.10;;
59938;SDS011;45801;51.810;19.444;2024-03-29T00:16:13;5.00;;;1.90;;
59938;SDS011;45801;51.810;19.444;2024-03-29T00:18:40;6.80;;;2.00;;
59938;SDS011;45801;51.810;19.444;2024-03-29T00:21:06;6.30;;;2.00;;
59938;SDS011;45801;51.810;19.444;2024-03-29T00:23:32;8.50;;;2.60;;
59938;SDS011;45801;51.810;19.444;2024-03-29T00:25:59;6.60;;;2.10;;
59938;SDS011;45801;51.810;19.444;2024-03-29T00:28:25;6.50;;;2.20;;
59938;SDS011;45801;51.810;19.444;2024-03-29T00:30:52;6.80;;;2.10;;
59938;SDS011;45801;51.810;19.444;2024-03-29T00:33:18;7.10;;;2.30;;
59938;SDS011;45801;51.810;19.444;2024-03-29T00:35:44;5.10;;;2.00;;
59938;SDS011;45801;51.810;19.444;2024-03-29T00:38:11;6.70;;;2.80;;
59938;SDS011;45801;51.810;19.444;2024-03-29T00:40:38;6.30;;;2.40;;
59938;SDS011;45801;51.810;19.444;2024-03-29T00:43:04;6.10;;;2.60;;
59938;SDS011;45801;51.810;19.444;2024-03-29T00:45:30;6.10;;;2.30;;
59938;SDS011;45801;51.810;19.444;2024-03-29T00:47:57;7.30;;;2.60;;
59938;SDS011;45801;51.810;19.444;2024-03-29T00:50:23;8.00;;;2.60;;
59938;SDS011;45801;51.810;19.444;2024-03-29T00:52:49;6.10;;;2.60;;
59938;SDS011;45801;51.810;19.444;2024-03-29T00:55:16;5.40;;;1.80;;
59938;SDS011;45801;51.810;19.444;2024-03-29T00:57:42;5.40;;;2.30;;
59938;SDS011;45801;51.810;19.444;2024-03-29T01:00:09;7.30;;;3.00;;
59938;SDS011;45801;51.810;19.444;2024-03-29T01:02:36;6.10;;;2.30;;
59938;SDS011;45801;51.810;19.444;2024-03-29T01:05:03;6.20;;;2.00;;
59938;SDS011;45801;51.810;19.444;2024-03-29T01:07:29;5.80;;;2.60;;
59938;SDS011;45801;51.810;19.444;2024-03-29T01:09:56;6.70;;;2.20;;
59938;SDS011;45801;51.810;19.444;2024-03-29T01:12:22;6.20;;;1.80;;
59938;SDS011;45801;51.810;19.444;2024-03-29T01:14:48;5.50;;;2.30;;
59938;SDS011;45801;51.810;19.444;2024-03-29T01:17:15;6.40;;;2.30;;
59938;SDS011;45801;51.810;19.444;2024-03-29T01:19:41;5.40;;;2.10;;
59938;SDS011;45801;51.810;19.444;2024-03-29T01:22:07;4.60;;;1.60;;
59938;SDS011;45801;51.810;19.444;2024-03-29T01:24:34;5.30;;;2.50;;
59938;SDS011;45801;51.810;19.444;2024-03-29T01:27:00;7.10;;;2.00;;
59938;SDS011;45801;51.810;19.444;2024-03-29T01:29:27;6.00;;;1.80;;
59938;SDS011;45801;51.810;19.444;2024-03-29T01:31:53;4.70;;;2.10;;
59938;SDS011;45801;51.810;19.444;2024-03-29T01:34:20;6.70;;;2.60;;
59938;SDS011;45801;51.810;19.444;2024-03-29T01:36:46;5.20;;;2.30;;
59938;SDS011;45801;51.810;19.444;2024-03-29T01:39:13;6.30;;;2.80;;
59938;SDS011;45801;51.810;19.444;2024-03-29T01:41:41;4.90;;;2.30;;
59938;SDS011;45801;51.810;19.444;2024-03-29T01:44:08;7.00;;;2.30;;
59938;SDS011;45801;51.810;19.444;2024-03-29T01:46:35;5.80;;;2.20;;
59938;SDS011;45801;51.810;19.444;2024-03-29T01:49:03;6.90;;;2.60;;
59938;SDS011;45801;51.810;19.444;2024-03-29T01:51:31;6.70;;;2.70;;
59938;SDS011;45801;51.810;19.444;2024-03-29T01:53:58;6.10;;;2.40;;
59938;SDS011;45801;51.810;19.444;2024-03-29T01:56:25;5.30;;;2.20;;
59938;SDS011;45801;51.810;19.444;2024-03-29T01:58:53;5.60;;;2.30;;
59938;SDS011;45801;51.810;19.444;2024-03-29T02:01:23;5.30;;;2.20;;
59938;SDS011;45801;51.810;19.444;2024-03-29T02:03:52;5.20;;;2.10;;
59938;SDS011;45801;51.810;19.444;2024-03-29T02:06:19;5.80;;;2.40;;
59938;SDS011;45801;51.810;19.444;2024-03-29T02:08:45;6.80;;;2.90;;
59938;SDS011;45801;51.810;19.444;2024-03-29T02:11:16;5.70;;;1.80;;
59938;SDS011;45801;51.810;19.444;2024-03-29T02:13:42;6.90;;;2.20;;
59938;SDS011;45801;51.810;19.444;2024-03-29T02:16:10;6.60;;;2.70;;
59938;SDS011;45801;51.810;19.444;2024-03-29T02:18:36;6.50;;;2.20;;
59938;SDS011;45801;51.810;19.444;2024-03-29T02:21:03;5.60;;;2.30;;
59938;SDS011;45801;51.810;19.444;2024-03-29T02:23:29;6.50;;;2.60;;
59938;SDS011;45801;51.810;19.444;2024-03-29T02:25:59;6.90;;;2.20;;
59938;SDS011;45801;51.810;19.444;2024-03-29T02:28:26;7.10;;;2.40;;
59938;SDS011;45801;51.810;19.444;2024-03-29T02:30:52;6.80;;;2.40;;
59938;SDS011;45801;51.810;19.444;2024-03-29T02:33:22;7.30;;;2.40;;
59938;SDS011;45801;51.810;19.444;2024-03-29T02:35:48;5.00;;;2.00;;
59938;SDS011;45801;51.810;19.444;2024-03-29T02:38:15;5.00;;;2.10;;
59938;SDS011;45801;51.810;19.444;2024-03-29T02:40:41;5.10;;;2.10;;
59938;SDS011;45801;51.810;19.444;2024-03-29T02:43:07;5.20;;;1.90;;
59938;SDS011;45801;51.810;19.444;2024-03-29T02:45:34;5.10;;;2.00;;
59938;SDS011;45801;51.810;19.444;2024-03-29T02:48:01;5.60;;;1.70;;
59938;SDS011;45801;51.810;19.444;2024-03-29T02:50:27;6.70;;;1.70;;
59938;SDS011;45801;51.810;19.444;2024-03-29T02:52:53;4.60;;;1.60;;
59938;SDS011;45801;51.810;19.444;2024-03-29T02:55:20;6.20;;;2.40;;
59938;SDS011;45801;51.810;19.444;2024-03-29T02:57:46;3.40;;;1.50;;
59938;SDS011;45801;51.810;19.444;2024-03-29T03:00:13;4.60;;;1.70;;
59938;SDS011;45801;51.810;19.444;2024-03-29T03:02:39;5.10;;;1.80;;
59938;SDS011;45801;51.810;19.444;2024-03-29T03:05:06;5.10;;;1.80;;
59938;SDS011;45801;51.810;19.444;2024-03-29T03:07:33;7.50;;;1.90;;
59938;SDS011;45801;51.810;19.444;2024-03-29T03:10:19;6.50;;;2.10;;
59938;SDS011;45801;51.810;19.444;2024-03-29T03:13:05;6.20;;;2.20;;
59938;SDS011;45801;51.810;19.444;2024-03-29T03:15:31;5.30;;;2.20;;
59938;SDS011;45801;51.810;19.444;2024-03-29T03:17:58;6.70;;;2.30;;
59938;SDS011;45801;51.810;19.444;2024-03-29T03:20:25;5.60;;;2.20;;
59938;SDS011;45801;51.810;19.444;2024-03-29T03:22:56;5.20;;;2.00;;
59938;SDS011;45801;51.810;19.444;2024-03-29T03:25:26;3.90;;;1.70;;
59938;SDS011;45801;51.810;19.444;2024-03-29T03:27:54;5.10;;;1.90;;
59938;SDS011;45801;51.810;19.444;2024-03-29T03:30:20;4.10;;;1.70;;
59938;SDS011;45801;51.810;19.444;2024-03-29T03:32:48;4.00;;;1.60;;
59938;SDS011;45801;51.810;19.444;2024-03-29T03:35:14;5.40;;;2.10;;
59938;SDS011;45801;51.810;19.444;2024-03-29T03:37:41;5.80;;;2.10;;
59938;SDS011;45801;51.810;19.444;2024-03-29T03:40:07;6.30;;;2.00;;
59938;SDS011;45801;51.810;19.444;2024-03-29T03:42:34;6.00;;;2.20;;
59938;SDS011;45801;51.810;19.444;2024-03-29T03:45:00;4.20;;;1.80;;
59938;SDS011;45801;51.810;19.444;2024-03-29T03:47:27;6.20;;;2.30;;
59938;SDS011;45801;51.810;19.444;2024-03-29T03:49:53;5.70;;;2.10;;
59938;SDS011;45801;51.810;19.444;2024-03-29T03:52:19;5.50;;;1.80;;
59938;SDS011;45801;51.810;19.444;2024-03-29T03:54:46;4.80;;;1.70;;
59938;SDS011;45801;51.810;19.444;2024-03-29T03:57:12;4.80;;;2.00;;
59938;SDS011;45801;51.810;19.444;2024-03-29T03:59:39;6.60;;;2.50;;
59938;SDS011;45801;51.810;19.444;2024-03-29T04:02:05;6.80;;;2.30;;
59938;SDS011;45801;51.810;19.444;2024-03-29T04:04:31;5.70;;;2.40;;
59938;SDS011;45801;51.810;19.444;2024-03-29T04:06:58;8.00;;;2.60;;
59938;SDS011;45801;51.810;19.444;2024-03-29T04:09:24;6.80;;;2.80;;
59938;SDS011;45801;51.810;19.444;2024-03-29T04:11:50;6.30;;;2.20;;
59938;SDS011;45801;51.810;19.444;2024-03-29T04:14:17;8.70;;;3.00;;
59938;SDS011;45801;51.810;19.444;2024-03-29T04:16:43;7.80;;;2.70;;
59938;SDS011;45801;51.810;19.444;2024-03-29T04:19:09;5.60;;;2.20;;
59938;SDS011;45801;51.810;19.444;2024-03-29T04:21:36;7.30;;;2.90;;
59938;SDS011;45801;51.810;19.444;2024-03-29T04:24:02;8.90;;;2.70;;
59938;SDS011;45801;51.810;19.444;2024-03-29T04:26:29;9.00;;;3.20;;
59938;SDS011;45801;51.810;19.444;2024-03-29T04:28:55;8.00;;;3.40;;
59938;SDS011;45801;51.810;19.444;2024-03-29T04:31:22;7.20;;;2.80;;
59938;SDS011;45801;51.810;19.444;2024-03-29T04:33:48;7.90;;;2.80;;
59938;SDS011;45801;51.810;19.444;2024-03-29T04:36:15;7.90;;;3.30;;
59938;SDS011;45801;51.810;19.444;2024-03-29T04:38:41;7.80;;;3.20;;
59938;SDS011;45801;51.810;19.444;2024-03-29T04:41:07;7.70;;;3.00;;
59938;SDS011;45801;51.810;19.444;2024-03-29T04:43:34;8.20;;;2.70;;
59938;SDS011;45801;51.810;19.444;2024-03-29T04:46:06;6.70;;;3.00;;
59938;SDS011;45801;51.810;19.444;2024-03-29T04:48:36;7.70;;;3.20;;
59938;SDS011;45801;51.810;19.444;2024-03-29T04:51:03;7.50;;;2.80;;
59938;SDS011;45801;51.810;19.444;2024-03-29T04:53:30;9.80;;;3.30;;
59938;SDS011;45801;51.810;19.444;2024-03-29T04:55:57;8.00;;;3.10;;
59938;SDS011;45801;51.810;19.444;2024-03-29T04:58:26;8.30;;;3.60;;
59938;SDS011;45801;51.810;19.444;2024-03-29T05:00:53;8.30;;;3.20;;
59938;SDS011;45801;51.810;19.444;2024-03-29T05:03:20;9.10;;;3.50;;
59938;SDS011;45801;51.810;19.444;2024-03-29T05:05:47;9.30;;;3.60;;
59938;SDS011;45801;51.810;19.444;2024-03-29T05:08:15;7.20;;;3.20;;
59938;SDS011;45801;51.810;19.444;2024-03-29T05:10:44;7.20;;;3.20;;
59938;SDS011;45801;51.810;19.444;2024-03-29T05:13:10;7.50;;;3.60;;
59938;SDS011;45801;51.810;19.444;2024-03-29T05:15:37;6.90;;;3.20;;
59938;SDS011;45801;51.810;19.444;2024-03-29T05:18:04;7.60;;;3.70;;
59938;SDS011;45801;51.810;19.444;2024-03-29T05:20:30;6.00;;;3.40;;
59938;SDS011;45801;51.810;19.444;2024-03-29T05:22:58;7.30;;;3.80;;
59938;SDS011;45801;51.810;19.444;2024-03-29T05:25:25;8.70;;;4.50;;
59938;SDS011;45801;51.810;19.444;2024-03-29T05:27:52;8.70;;;4.10;;
59938;SDS011;45801;51.810;19.444;2024-03-29T05:30:19;8.10;;;3.80;;
59938;SDS011;45801;51.810;19.444;2024-03-29T05:32:45;7.90;;;3.80;;
59938;SDS011;45801;51.810;19.444;2024-03-29T05:35:12;8.30;;;3.60;;
59938;SDS011;45801;51.810;19.444;2024-03-29T05:37:40;8.30;;;4.30;;
59938;SDS011;45801;51.810;19.444;2024-03-29T05:40:07;8.80;;;4.40;;
59938;SDS011;45801;51.810;19.444;2024-03-29T05:42:34;8.50;;;4.20;;
59938;SDS011;45801;51.810;19.444;2024-03-29T05:45:04;8.40;;;3.80;;
59938;SDS011;45801;51.810;19.444;2024-03-29T05:47:31;9.70;;;4.10;;
59938;SDS011;45801;51.810;19.444;2024-03-29T05:49:58;7.80;;;3.80;;
59938;SDS011;45801;51.810;19.444;2024-03-29T05:52:24;8.90;;;4.10;;
59938;SDS011;45801;51.810;19.444;2024-03-29T05:54:50;10.20;;;4.30;;
59938;SDS011;45801;51.810;19.444;2024-03-29T05:57:17;8.50;;;4.50;;
59938;SDS011;45801;51.810;19.444;2024-03-29T05:59:43;10.40;;;4.40;;
59938;SDS011;45801;51.810;19.444;2024-03-29T06:02:10;11.60;;;4.40;;
59938;SDS011;45801;51.810;19.444;2024-03-29T06:04:36;7.50;;;4.20;;
59938;SDS011;45801;51.810;19.444;2024-03-29T06:07:04;8.20;;;4.50;;
59938;SDS011;45801;51.810;19.444;2024-03-29T06:09:31;9.30;;;4.60;;
59938;SDS011;45801;51.810;19.444;2024-03-29T06:11:59;8.40;;;4.50;;
59938;SDS011;45801;51.810;19.444;2024-03-29T06:14:26;9.60;;;4.50;;
59938;SDS011;45801;51.810;19.444;2024-03-29T06:17:11;9.80;;;4.60;;
59938;SDS011;45801;51.810;19.444;2024-03-29T06:19:53;9.10;;;4.30;;
59938;SDS011;45801;51.810;19.444;2024-03-29T06:22:26;7.80;;;3.80;;
59938;SDS011;45801;51.810;19.444;2024-03-29T06:24:56;6.60;;;3.50;;
59938;SDS011;45801;51.810;19.444;2024-03-29T06:27:25;7.00;;;3.70;;
59938;SDS011;45801;51.810;19.444;2024-03-29T06:29:51;8.50;;;4.00;;
59938;SDS011;45801;51.810;19.444;2024-03-29T06:32:18;6.70;;;3.50;;
59938;SDS011;45801;51.810;19.444;2024-03-29T06:34:44;7.40;;;3.90;;
59938;SDS011;45801;51.810;19.444;2024-03-29T06:37:11;10.40;;;3.60;;
59938;SDS011;45801;51.810;19.444;2024-03-29T06:39:38;6.90;;;3.50;;
59938;SDS011;45801;51.810;19.444;2024-03-29T06:42:04;9.10;;;4.10;;
59938;SDS011;45801;51.810;19.444;2024-03-29T06:44:35;7.90;;;3.60;;
59938;SDS011;45801;51.810;19.444;2024-03-29T06:47:02;6.30;;;3.30;;
59938;SDS011;45801;51.810;19.444;2024-03-29T06:49:29;5.80;;;2.60;;
59938;SDS011;45801;51.810;19.444;2024-03-29T06:51:56;6.60;;;3.60;;
59938;SDS011;45801;51.810;19.444;2024-03-29T06:54:25;7.30;;;3.70;;
59938;SDS011;45801;51.810;19.444;2024-03-29T06:56:53;6.70;;;3.20;;
59938;SDS011;45801;51.810;19.444;2024-03-29T06:59:20;6.60;;;3.20;;
59938;SDS011;45801;51.810;19.444;2024-03-29T07:01:46;7.10;;;3.40;;
59938;SDS011;45801;51.810;19.444;2024-03-29T07:04:19;7.10;;;3.50;;
59938;SDS011;45801;51.810;19.444;2024-03-29T07:06:46;7.60;;;3.50;;
59938;SDS011;45801;51.810;19.444;2024-03-29T07:09:18;5.60;;;2.80;;
59938;SDS011;45801;51.810;19.444;2024-03-29T07:11:46;7.50;;;3.20;;
59938;SDS011;45801;51.810;19.444;2024-03-29T07:14:14;7.70;;;3.20;;
59938;SDS011;45801;51.810;19.444;2024-03-29T07:16:41;7.40;;;3.10;;
59938;SDS011;45801;51.810;19.444;2024-03-29T07:19:08;7.10;;;3.40;;
59938;SDS011;45801;51.810;19.444;2024-03-29T07:21:35;6.70;;;2.80;;
59938;SDS011;45801;51.810;19.444;2024-03-29T07:24:01;7.20;;;3.20;;
59938;SDS011;45801;51.810;19.444;2024-03-29T07:26:27;6.90;;;2.80;;
59938;SDS011;45801;51.810;19.444;2024-03-29T07:28:54;7.40;;;3.20;;
59938;SDS011;45801;51.810;19.444;2024-03-29T07:31:20;7.30;;;3.00;;
59938;SDS011;45801;51.810;19.444;2024-03-29T07:33:46;6.40;;;2.70;;
59938;SDS011;45801;51.810;19.444;2024-03-29T07:36:13;6.40;;;2.60;;
59938;SDS011;45801;51.810;19.444;2024-03-29T07:38:40;10.70;;;3.10;;
59938;SDS011;45801;51.810;19.444;2024-03-29T07:41:07;6.90;;;2.30;;
59938;SDS011;45801;51.810;19.444;2024-03-29T07:43:39;6.10;;;2.20;;
59938;SDS011;45801;51.810;19.444;2024-03-29T07:46:07;4.80;;;2.00;;
59938;SDS011;45801;51.810;19.444;2024-03-29T07:48:35;5.10;;;2.20;;
59938;SDS011;45801;51.810;19.444;2024-03-29T07:51:02;7.50;;;2.50;;
59938;SDS011;45801;51.810;19.444;2024-03-29T07:53:29;6.80;;;2.50;;
59938;SDS011;45801;51.810;19.444;2024-03-29T07:55:55;4.70;;;2.00;;
59938;SDS011;45801;51.810;19.444;2024-03-29T07:58:21;5.80;;;2.00;;
59938;SDS011;45801;51.810;19.444;2024-03-29T08:00:47;7.00;;;2.40;;
59938;SDS011;45801;51.810;19.444;2024-03-29T08:03:14;5.50;;;2.60;;
59938;SDS011;45801;51.810;19.444;2024-03-29T08:05:40;7.30;;;2.80;;
59938;SDS011;45801;51.810;19.444;2024-03-29T08:08:07;6.30;;;2.20;;
59938;SDS011;45801;51.810;19.444;2024-03-29T08:10:33;5.70;;;2.20;;
59938;SDS011;45801;51.810;19.444;2024-03-29T08:13:00;5.70;;;2.50;;
59938;SDS011;45801;51.810;19.444;2024-03-29T08:15:27;6.40;;;1.80;;
59938;SDS011;45801;51.810;19.444;2024-03-29T08:17:53;5.20;;;2.10;;
59938;SDS011;45801;51.810;19.444;2024-03-29T08:20:20;7.10;;;2.20;;
59938;SDS011;45801;51.810;19.444;2024-03-29T08:22:46;6.70;;;2.10;;
59938;SDS011;45801;51.810;19.444;2024-03-29T08:25:12;5.20;;;1.50;;
59938;SDS011;45801;51.810;19.444;2024-03-29T08:27:39;6.10;;;2.00;;
59938;SDS011;45801;51.810;19.444;2024-03-29T08:30:05;6.20;;;1.80;;
59938;SDS011;45801;51.810;19.444;2024-03-29T08:32:32;5.00;;;1.50;;
59938;SDS011;45801;51.810;19.444;2024-03-29T08:34:58;6.00;;;1.70;;
59938;SDS011;45801;51.810;19.444;2024-03-29T08:37:25;7.00;;;1.70;;
59938;SDS011;45801;51.810;19.444;2024-03-29T08:39:51;3.40;;;1.10;;
59938;SDS011;45801;51.810;19.444;2024-03-29T08:42:17;3.30;;;1.00;;
59938;SDS011;45801;51.810;19.444;2024-03-29T08:44:44;3.00;;;1.20;;
59938;SDS011;45801;51.810;19.444;2024-03-29T08:47:10;3.90;;;1.30;;
59938;SDS011;45801;51.810;19.444;2024-03-29T08:49:37;3.50;;;1.20;;
59938;SDS011;45801;51.810;19.444;2024-03-29T08:52:03;5.40;;;1.50;;
59938;SDS011;45801;51.810;19.444;2024-03-29T08:54:31;7.10;;;1.90;;
59938;SDS011;45801;51.810;19.444;2024-03-29T08:56:58;4.00;;;1.50;;
59938;SDS011;45801;51.810;19.444;2024-03-29T08:59:25;7.80;;;1.40;;
59938;SDS011;45801;51.810;19.444;2024-03-29T09:01:52;5.50;;;1.30;;
59938;SDS011;45801;51.810;19.444;2024-03-29T09:04:19;6.90;;;1.40;;
59938;SDS011;45801;51.810;19.444;2024-03-29T09:06:47;3.50;;;1.30;;
59938;SDS011;45801;51.810;19.444;2024-03-29T09:09:13;4.00;;;1.30;;
59938;SDS011;45801;51.810;19.444;2024-03-29T09:11:40;6.50;;;1.30;;
59938;SDS011;45801;51.810;19.444;2024-03-29T09:14:06;3.90;;;1.30;;
59938;SDS011;45801;51.810;19.444;2024-03-29T09:16:35;4.20;;;1.10;;
59938;SDS011;45801;51.810;19.444;2024-03-29T09:19:02;6.70;;;1.30;;
59938;SDS011;45801;51.810;19.444;2024-03-29T09:21:28;3.50;;;1.10;;
59938;SDS011;45801;51.810;19.444;2024-03-29T09:23:55;3.60;;;1.00;;
59938;SDS011;45801;51.810;19.444;2024-03-29T09:26:22;5.50;;;1.10;;
59938;SDS011;45801;51.810;19.444;2024-03-29T09:28:48;3.90;;;1.10;;
59938;SDS011;45801;51.810;19.444;2024-03-29T09:31:15;4.60;;;1.10;;
59938;SDS011;45801;51.810;19.444;2024-03-29T09:33:41;4.10;;;0.90;;
59938;SDS011;45801;51.810;19.444;2024-03-29T09:36:08;3.90;;;1.20;;
59938;SDS011;45801;51.810;19.444;2024-03-29T09:38:37;4.00;;;1.40;;
59938;SDS011;45801;51.810;19.444;2024-03-29T09:41:07;3.80;;;1.20;;
59938;SDS011;45801;51.810;19.444;2024-03-29T09:43:40;3.40;;;1.40;;
59938;SDS011;45801;51.810;19.444;2024-03-29T09:46:08;6.00;;;1.20;;
59938;SDS011;45801;51.810;19.444;2024-03-29T09:48:35;5.20;;;1.60;;
59938;SDS011;45801;51.810;19.444;2024-03-29T09:51:04;4.60;;;1.10;;
59938;SDS011;45801;51.810;19.444;2024-03-29T09:53:35;5.80;;;1.70;;
59938;SDS011;45801;51.810;19.444;2024-03-29T09:56:04;6.60;;;1.30;;
59938;SDS011;45801;51.810;19.444;2024-03-29T09:58:31;4.30;;;1.00;;
59938;SDS011;45801;51.810;19.444;2024-03-29T10:01:03;4.90;;;1.20;;
59938;SDS011;45801;51.810;19.444;2024-03-29T10:03:36;3.50;;;1.10;;
59938;SDS011;45801;51.810;19.444;2024-03-29T10:06:05;5.00;;;1.00;;
59938;SDS011;45801;51.810;19.444;2024-03-29T10:11:04;3.80;;;1.00;;
59938;SDS011;45801;51.810;19.444;2024-03-29T10:13:31;4.30;;;1.00;;
59938;SDS011;45801;51.810;19.444;2024-03-29T10:15:57;3.10;;;1.00;;
59938;SDS011;45801;51.810;19.444;2024-03-29T10:18:27;6.60;;;1.50;;
59938;SDS011;45801;51.810;19.444;2024-03-29T10:21:00;6.00;;;1.60;;
59938;SDS011;45801;51.810;19.444;2024-03-29T10:23:30;5.60;;;1.20;;
59938;SDS011;45801;51.810;19.444;2024-03-29T10:25:57;4.00;;;1.20;;
59938;SDS011;45801;51.810;19.444;2024-03-29T10:28:29;5.10;;;1.20;;
59938;SDS011;45801;51.810;19.444;2024-03-29T10:30:58;7.40;;;1.20;;
59938;SDS011;45801;51.810;19.444;2024-03-29T10:33:29;5.60;;;1.00;;
59938;SDS011;45801;51.810;19.444;2024-03-29T10:35:56;4.10;;;1.40;;
59938;SDS011;45801;51.810;19.444;2024-03-29T10:38:24;8.30;;;1.40;;
59938;SDS011;45801;51.810;19.444;2024-03-29T10:40:53;5.60;;;1.20;;
59938;SDS011;45801;51.810;19.444;2024-03-29T10:43:20;3.30;;;1.00;;
59938;SDS011;45801;51.810;19.444;2024-03-29T10:45:47;5.00;;;0.90;;
59938;SDS011;45801;51.810;19.444;2024-03-29T10:48:15;5.30;;;1.00;;
59938;SDS011;45801;51.810;19.444;2024-03-29T10:50:42;4.50;;;1.00;;
59938;SDS011;45801;51.810;19.444;2024-03-29T10:53:10;3.80;;;1.00;;
59938;SDS011;45801;51.810;19.444;2024-03-29T10:55:40;5.10;;;1.00;;
59938;SDS011;45801;51.810;19.444;2024-03-29T10:58:07;5.00;;;0.90;;
59938;SDS011;45801;51.810;19.444;2024-03-29T11:00:38;2.40;;;0.80;;
59938;SDS011;45801;51.810;19.444;2024-03-29T11:05:44;3.60;;;0.80;;
59938;SDS011;45801;51.810;19.444;2024-03-29T11:08:17;3.90;;;0.80;;
59938;SDS011;45801;51.810;19.444;2024-03-29T11:10:48;4.70;;;1.00;;
59938;SDS011;45801;51.810;19.444;2024-03-29T11:16:15;5.60;;;1.30;;
59938;SDS011;45801;51.810;19.444;2024-03-29T11:18:43;4.60;;;1.00;;
59938;SDS011;45801;51.810;19.444;2024-03-29T11:21:10;3.30;;;0.80;;
59938;SDS011;45801;51.810;19.444;2024-03-29T11:23:39;4.40;;;0.90;;
59938;SDS011;45801;51.810;19.444;2024-03-29T11:26:05;5.20;;;0.90;;
59938;SDS011;45801;51.810;19.444;2024-03-29T11:28:33;4.30;;;0.90;;
59938;SDS011;45801;51.810;19.444;2024-03-29T11:31:07;6.00;;;1.00;;
59938;SDS011;45801;51.810;19.444;2024-03-29T11:33:35;3.20;;;0.60;;
59938;SDS011;45801;51.810;19.444;2024-03-29T11:36:12;3.00;;;0.80;;
59938;SDS011;45801;51.810;19.444;2024-03-29T11:38:39;2.50;;;0.70;;
59938;SDS011;45801;51.810;19.444;2024-03-29T11:41:07;3.60;;;0.90;;
59938;SDS011;45801;51.810;19.444;2024-03-29T11:43:38;5.00;;;0.90;;
59938;SDS011;45801;51.810;19.444;2024-03-29T11:46:06;4.90;;;0.90;;
59938;SDS011;45801;51.810;19.444;2024-03-29T11:48:34;4.20;;;0.80;;
59938;SDS011;45801;51.810;19.444;2024-03-29T11:51:05;1.70;;;0.60;;
59938;SDS011;45801;51.810;19.444;2024-03-29T11:56:02;5.10;;;0.80;;
59938;SDS011;45801;51.810;19.444;2024-03-29T11:58:30;3.50;;;0.80;;
59938;SDS011;45801;51.810;19.444;2024-03-29T12:00:58;1.30;;;0.60;;
59938;SDS011;45801;51.810;19.444;2024-03-29T12:03:26;3.10;;;0.70;;
59938;SDS011;45801;51.810;19.444;2024-03-29T12:05:56;1.80;;;0.60;;
59938;SDS011;45801;51.810;19.444;2024-03-29T12:08:32;5.00;;;0.90;;
59938;SDS011;45801;51.810;19.444;2024-03-29T12:11:00;2.60;;;0.50;;
59938;SDS011;45801;51.810;19.444;2024-03-29T12:13:27;4.60;;;1.20;;
59938;SDS011;45801;51.810;19.444;2024-03-29T12:15:54;5.90;;;1.00;;
59938;SDS011;45801;51.810;19.444;2024-03-29T12:18:22;3.50;;;0.80;;
59938;SDS011;45801;51.810;19.444;2024-03-29T12:20:50;2.90;;;0.70;;
59938;SDS011;45801;51.810;19.444;2024-03-29T12:23:18;4.50;;;1.30;;
59938;SDS011;45801;51.810;19.444;2024-03-29T12:25:46;6.60;;;0.90;;
59938;SDS011;45801;51.810;19.444;2024-03-29T12:28:14;4.50;;;0.90;;
59938;SDS011;45801;51.810;19.444;2024-03-29T12:30:43;3.20;;;0.80;;
59938;SDS011;45801;51.810;19.444;2024-03-29T12:33:12;4.90;;;0.90;;
59938;SDS011;45801;51.810;19.444;2024-03-29T12:35:43;3.90;;;1.00;;
59938;SDS011;45801;51.810;19.444;2024-03-29T12:38:11;3.10;;;0.60;;
59938;SDS011;45801;51.810;19.444;2024-03-29T12:40:42;3.40;;;0.80;;
59938;SDS011;45801;51.810;19.444;2024-03-29T12:43:10;3.50;;;0.80;;
59938;SDS011;45801;51.810;19.444;2024-03-29T12:45:38;4.40;;;0.70;;
59938;SDS011;45801;51.810;19.444;2024-03-29T12:48:15;2.80;;;0.50;;
59938;SDS011;45801;51.810;19.444;2024-03-29T12:50:43;3.70;;;0.70;;
59938;SDS011;45801;51.810;19.444;2024-03-29T12:53:11;4.00;;;0.80;;
59938;SDS011;45801;51.810;19.444;2024-03-29T12:55:39;2.40;;;0.60;;
59938;SDS011;45801;51.810;19.444;2024-03-29T12:58:10;3.30;;;1.10;;
59938;SDS011;45801;51.810;19.444;2024-03-29T13:00:38;5.30;;;0.80;;
59938;SDS011;45801;51.810;19.444;2024-03-29T13:03:06;2.50;;;0.70;;
59938;SDS011;45801;51.810;19.444;2024-03-29T13:05:37;2.40;;;0.60;;
59938;SDS011;45801;51.810;19.444;2024-03-29T13:08:08;2.30;;;0.60;;
59938;SDS011;45801;51.810;19.444;2024-03-29T13:10:37;4.40;;;0.70;;
59938;SDS011;45801;51.810;19.444;2024-03-29T13:13:06;5.40;;;0.70;;
59938;SDS011;45801;51.810;19.444;2024-03-29T13:15:33;6.40;;;1.00;;
59938;SDS011;45801;51.810;19.444;2024-03-29T13:18:02;4.30;;;0.70;;
59938;SDS011;45801;51.810;19.444;2024-03-29T13:20:34;2.40;;;0.60;;
59938;SDS011;45801;51.810;19.444;2024-03-29T13:23:07;3.80;;;0.70;;
59938;SDS011;45801;51.810;19.444;2024-03-29T13:25:33;2.40;;;0.50;;
59938;SDS011;45801;51.810;19.444;2024-03-29T13:28:00;3.50;;;0.60;;
59938;SDS011;45801;51.810;19.444;2024-03-29T13:30:27;1.80;;;0.50;;
59938;SDS011;45801;51.810;19.444;2024-03-29T13:32:54;4.30;;;1.00;;
59938;SDS011;45801;51.810;19.444;2024-03-29T13:35:20;4.80;;;0.70;;
59938;SDS011;45801;51.810;19.444;2024-03-29T13:37:51;2.60;;;0.80;;
59938;SDS011;45801;51.810;19.444;2024-03-29T13:40:22;2.50;;;0.70;;
59938;SDS011;45801;51.810;19.444;2024-03-29T13:42:51;3.90;;;0.90;;
59938;SDS011;45801;51.810;19.444;2024-03-29T13:45:18;3.60;;;1.00;;
59938;SDS011;45801;51.810;19.444;2024-03-29T13:47:45;3.10;;;0.90;;
59938;SDS011;45801;51.810;19.444;2024-03-29T13:50:14;3.80;;;0.80;;
59938;SDS011;45801;51.810;19.444;2024-03-29T13:52:41;3.60;;;0.70;;
59938;SDS011;45801;51.810;19.444;2024-03-29T13:55:10;6.10;;;1.10;;
59938;SDS011;45801;51.810;19.444;2024-03-29T13:57:36;2.70;;;0.80;;
59938;SDS011;45801;51.810;19.444;2024-03-29T14:00:04;3.40;;;1.20;;
59938;SDS011;45801;51.810;19.444;2024-03-29T14:02:34;5.50;;;0.70;;
59938;SDS011;45801;51.810;19.444;2024-03-29T14:05:01;2.90;;;0.70;;
59938;SDS011;45801;51.810;19.444;2024-03-29T14:07:27;3.40;;;0.80;;
59938;SDS011;45801;51.810;19.444;2024-03-29T14:09:54;4.30;;;0.70;;
59938;SDS011;45801;51.810;19.444;2024-03-29T14:12:20;2.10;;;0.70;;
59938;SDS011;45801;51.810;19.444;2024-03-29T14:14:53;2.80;;;0.60;;
59938;SDS011;45801;51.810;19.444;2024-03-29T14:17:20;3.00;;;0.70;;
59938;SDS011;45801;51.810;19.444;2024-03-29T14:19:47;2.00;;;0.60;;
59938;SDS011;45801;51.810;19.444;2024-03-29T14:22:15;3.30;;;0.70;;
59938;SDS011;45801;51.810;19.444;2024-03-29T14:24:43;4.80;;;1.10;;
59938;SDS011;45801;51.810;19.444;2024-03-29T14:27:09;4.10;;;1.20;;
59938;SDS011;45801;51.810;19.444;2024-03-29T14:29:36;2.70;;;0.70;;
59938;SDS011;45801;51.810;19.444;2024-03-29T14:32:02;3.50;;;0.80;;
59938;SDS011;45801;51.810;19.444;2024-03-29T14:34:29;2.70;;;0.90;;
59938;SDS011;45801;51.810;19.444;2024-03-29T14:36:58;4.50;;;0.90;;
59938;SDS011;45801;51.810;19.444;2024-03-29T14:39:24;3.50;;;0.90;;
59938;SDS011;45801;51.810;19.444;2024-03-29T14:41:52;3.80;;;0.90;;
59938;SDS011;45801;51.810;19.444;2024-03-29T14:44:18;3.00;;;0.70;;
59938;SDS011;45801;51.810;19.444;2024-03-29T14:46:47;6.00;;;1.10;;